createdAt,value
2018-07-30T00:00:34.032Z,52.12
2018-07-30T00:01:34.029Z,52.24
2018-07-30T00:02:33.996Z,52.24
2018-07-30T00:03:33.986Z,53.04
2018-07-30T00:04:33.973Z,52.94
2018-07-30T00:05:33.963Z,53.64
2018-07-30T00:06:33.981Z,53.83
2018-07-30T00:07:33.954Z,53.74
2018-07-30T00:08:33.931Z,54.24
2018-07-30T00:09:33.923Z,54.24
2018-07-30T00:10:33.920Z,54.13
2018-07-30T00:11:33.983Z,54.53
2018-07-30T00:12:33.888Z,54.63
2018-07-30T00:13:33.879Z,54.73
2018-07-30T00:14:33.866Z,53.53
2018-07-30T00:15:33.852Z,54.24
2018-07-30T00:16:33.890Z,54.24
2018-07-30T00:17:33.834Z,54.43
2018-07-30T00:18:33.820Z,54.43
2018-07-30T00:19:33.862Z,54.63
2018-07-30T00:20:33.798Z,54.83
2018-07-30T00:21:33.842Z,54.96
2018-07-30T00:22:33.810Z,54.83
2018-07-30T00:23:33.767Z,55.23
2018-07-30T00:24:33.757Z,55.03
2018-07-30T00:25:33.753Z,55.23
2018-07-30T00:26:33.749Z,55.26
2018-07-30T00:27:33.723Z,55.16
2018-07-30T00:28:33.748Z,55.46
2018-07-30T00:29:33.705Z,55.65
2018-07-30T00:30:33.689Z,55.65
2018-07-30T00:31:33.690Z,55.58
2018-07-30T00:32:33.670Z,55.46
2018-07-30T00:33:33.683Z,55.48
2018-07-30T00:34:33.646Z,55.65
2018-07-30T00:35:33.730Z,55.68
2018-07-30T00:36:33.634Z,55.58
2018-07-30T00:37:33.616Z,55.68
2018-07-30T00:38:33.663Z,55.88
2018-07-30T00:39:33.596Z,55.68
2018-07-30T00:40:33.585Z,55.68
2018-07-30T00:41:33.574Z,55.78
2018-07-30T00:42:33.562Z,55.78
2018-07-30T00:43:33.584Z,55.68
2018-07-30T00:44:33.576Z,55.58
2018-07-30T00:45:33.532Z,55.68
2018-07-30T00:46:33.523Z,55.58
2018-07-30T00:47:33.513Z,55.68
2018-07-30T00:48:33.496Z,55.78
2018-07-30T00:49:33.510Z,55.88
2018-07-30T00:50:33.480Z,56.08
2018-07-30T00:51:33.539Z,55.78
2018-07-30T00:52:33.454Z,55.91
2018-07-30T00:53:33.443Z,55.80
2018-07-30T00:54:33.461Z,55.71
2018-07-30T00:55:33.422Z,56.40
2018-07-30T00:56:33.411Z,56.21
2018-07-30T00:57:33.404Z,55.91
2018-07-30T00:58:33.388Z,56.21
2018-07-30T00:59:33.405Z,55.88
2018-07-30T01:00:33.374Z,55.71
2018-07-30T01:01:33.370Z,56.01
2018-07-30T01:02:33.350Z,55.80
2018-07-30T01:03:33.331Z,55.80
2018-07-30T01:04:33.351Z,55.80
2018-07-30T01:05:33.311Z,56.40
2018-07-30T01:06:33.298Z,56.21
2018-07-30T01:07:33.326Z,56.40
2018-07-30T01:08:33.280Z,56.10
2018-07-30T01:09:33.266Z,56.81
2018-07-30T01:10:33.284Z,56.51
2018-07-30T01:11:33.245Z,56.21
2018-07-30T01:12:33.237Z,56.10
2018-07-30T01:13:33.229Z,56.10
2018-07-30T01:14:33.211Z,56.10
2018-07-30T01:15:33.248Z,56.01
2018-07-30T01:16:33.213Z,56.01
2018-07-30T01:17:33.184Z,55.71
2018-07-30T01:18:33.168Z,55.51
2018-07-30T01:19:33.161Z,55.71
2018-07-30T01:20:33.148Z,55.71
2018-07-30T01:21:33.172Z,55.71
2018-07-30T01:22:33.131Z,55.21
2018-07-30T01:23:33.114Z,55.11
2018-07-30T01:24:33.101Z,55.71
2018-07-30T01:25:33.097Z,55.51
2018-07-30T01:26:33.200Z,55.71
2018-07-30T01:27:33.073Z,55.80
2018-07-30T01:28:33.056Z,55.83
2018-07-30T01:29:33.053Z,55.83
2018-07-30T01:30:33.036Z,56.33
2018-07-30T01:31:33.098Z,56.33
2018-07-30T01:32:33.016Z,56.33
2018-07-30T01:33:33.003Z,56.83
2018-07-30T01:34:32.998Z,56.93
2018-07-30T01:35:32.982Z,57.33
2018-07-30T01:36:32.992Z,57.73
2018-07-30T01:37:32.968Z,57.53
2018-07-30T01:38:32.945Z,57.63
2018-07-30T01:39:32.946Z,58.42
2018-07-30T01:40:32.959Z,58.12
2018-07-30T01:41:32.919Z,58.83
2018-07-30T01:42:32.909Z,57.35
2018-07-30T01:43:32.891Z,58.15
2018-07-30T01:44:32.883Z,58.55
2018-07-30T01:45:32.869Z,59.25
2018-07-30T01:46:32.893Z,59.65
2018-07-30T01:47:32.907Z,59.25
2018-07-30T01:48:32.842Z,59.95
2018-07-30T01:49:32.827Z,58.95
2018-07-30T01:50:32.826Z,59.25
2018-07-30T01:51:35.197Z,58.95
2018-07-30T01:52:32.801Z,60.05
2018-07-30T01:53:32.779Z,59.75
2018-07-30T01:54:32.776Z,59.75
2018-07-30T01:55:32.884Z,59.88
2018-07-30T01:56:32.747Z,60.05
2018-07-30T01:57:32.762Z,60.17
2018-07-30T01:58:32.724Z,60.58
2018-07-30T01:59:32.718Z,60.78
2018-07-30T02:00:32.702Z,61.87
2018-07-30T02:01:32.701Z,61.68
2018-07-30T02:02:32.720Z,61.57
2018-07-30T02:03:32.668Z,61.68
2018-07-30T02:04:32.662Z,61.87
2018-07-30T02:05:32.651Z,61.77
2018-07-30T02:06:32.642Z,61.87
2018-07-30T02:07:32.626Z,60.88
2018-07-30T02:08:32.636Z,60.38
2018-07-30T02:09:32.606Z,60.17
2018-07-30T02:10:32.602Z,60.78
2018-07-30T02:11:32.620Z,60.08
2018-07-30T02:12:32.572Z,59.78
2018-07-30T02:13:32.592Z,60.08
2018-07-30T02:14:32.554Z,60.61
2018-07-30T02:15:32.536Z,60.80
2018-07-30T02:16:32.529Z,60.80
2018-07-30T02:17:32.514Z,61.21
2018-07-30T02:18:32.498Z,61.71
2018-07-30T02:19:32.514Z,62.13
2018-07-30T02:20:32.485Z,62.34
2018-07-30T02:21:32.559Z,62.34
2018-07-30T02:22:32.466Z,63.13
2018-07-30T02:23:32.455Z,62.63
2018-07-30T02:24:32.461Z,62.73
2018-07-30T02:25:32.429Z,62.43
2018-07-30T02:26:32.425Z,63.36
2018-07-30T02:27:32.408Z,63.86
2018-07-30T02:28:32.404Z,64.36
2018-07-30T02:29:32.424Z,64.36
2018-07-30T02:30:32.423Z,64.36
2018-07-30T02:31:33.074Z,64.86
2018-07-30T02:32:32.359Z,64.36
2018-07-30T02:33:32.346Z,65.16
2018-07-30T02:34:32.334Z,65.09
2018-07-30T02:35:32.357Z,65.46
2018-07-30T02:36:32.304Z,65.76
2018-07-30T02:37:32.302Z,66.29
2018-07-30T02:38:32.285Z,66.49
2018-07-30T02:39:32.278Z,66.49
2018-07-30T02:40:32.293Z,66.69
2018-07-30T02:41:32.253Z,67.09
2018-07-30T02:42:32.243Z,67.29
2018-07-30T02:43:32.240Z,67.40
2018-07-30T02:44:32.226Z,67.59
2018-07-30T02:45:32.237Z,67.29
2018-07-30T02:46:32.198Z,67.09
2018-07-30T02:47:32.198Z,66.99
2018-07-30T02:48:32.181Z,66.29
2018-07-30T02:49:32.173Z,66.32
2018-07-30T02:50:32.178Z,65.89
2018-07-30T02:51:32.179Z,65.99
2018-07-30T02:52:32.136Z,66.09
2018-07-30T02:53:32.144Z,66.52
2018-07-30T02:54:32.116Z,66.42
2018-07-30T02:55:32.143Z,66.42
2018-07-30T02:56:32.094Z,66.13
2018-07-30T02:57:32.152Z,66.32
2018-07-30T02:58:32.071Z,66.13
2018-07-30T02:59:32.063Z,66.02
2018-07-30T03:00:32.085Z,66.02
2018-07-30T03:01:32.040Z,66.55
2018-07-30T03:02:32.023Z,66.55
2018-07-30T03:03:32.021Z,66.93
2018-07-30T03:04:32.010Z,67.16
2018-07-30T03:05:31.989Z,67.36
2018-07-30T03:06:32.004Z,67.43
2018-07-30T03:07:32.028Z,67.52
2018-07-30T03:08:31.960Z,67.32
2018-07-30T03:09:31.953Z,67.32
2018-07-30T03:10:31.945Z,67.43
2018-07-30T03:11:31.926Z,67.52
2018-07-30T03:12:31.938Z,67.02
2018-07-30T03:13:31.911Z,66.89
2018-07-30T03:14:31.900Z,66.82
2018-07-30T03:15:31.887Z,67.19
2018-07-30T03:16:31.879Z,67.22
2018-07-30T03:17:31.892Z,66.99
2018-07-30T03:18:31.857Z,66.99
2018-07-30T03:19:31.844Z,67.59
2018-07-30T03:20:31.828Z,67.59
2018-07-30T03:21:31.817Z,66.89
2018-07-30T03:22:31.830Z,66.69
2018-07-30T03:23:31.857Z,66.49
2018-07-30T03:24:31.785Z,66.22
2018-07-30T03:25:31.774Z,66.52
2018-07-30T03:26:31.782Z,66.32
2018-07-30T03:27:31.793Z,66.63
2018-07-30T03:28:31.742Z,66.42
2018-07-30T03:29:31.726Z,66.52
2018-07-30T03:30:31.722Z,66.42
2018-07-30T03:31:31.717Z,66.52
2018-07-30T03:32:31.699Z,66.93
2018-07-30T03:33:31.722Z,66.22
2018-07-30T03:34:31.676Z,66.42
2018-07-30T03:35:31.666Z,66.42
2018-07-30T03:36:31.654Z,66.63
2018-07-30T03:37:31.642Z,66.42
2018-07-30T03:38:31.670Z,66.02
2018-07-30T03:39:31.623Z,66.13
2018-07-30T03:40:31.613Z,65.83
2018-07-30T03:41:31.601Z,65.75
2018-07-30T03:42:31.587Z,65.75
2018-07-30T03:43:31.576Z,65.66
2018-07-30T03:44:31.664Z,66.16
2018-07-30T03:45:31.576Z,66.36
2018-07-30T03:46:31.547Z,66.16
2018-07-30T03:47:31.597Z,66.25
2018-07-30T03:48:31.523Z,66.25
2018-07-30T03:49:31.516Z,65.75
2018-07-30T03:50:31.526Z,65.75
2018-07-30T03:51:31.489Z,65.95
2018-07-30T03:52:31.478Z,65.66
2018-07-30T03:53:31.481Z,66.16
2018-07-30T03:54:31.459Z,66.55
2018-07-30T03:55:31.469Z,66.42
2018-07-30T03:56:31.433Z,66.66
2018-07-30T03:57:31.422Z,66.55
2018-07-30T03:58:31.417Z,66.46
2018-07-30T03:59:31.398Z,66.96
2018-07-30T04:00:31.412Z,66.55
2018-07-30T04:01:31.384Z,66.75
2018-07-30T04:02:31.369Z,66.55
2018-07-30T04:03:31.436Z,66.55
2018-07-30T04:04:31.346Z,66.25
2018-07-30T04:05:31.361Z,66.16
2018-07-30T04:06:31.359Z,66.16
2018-07-30T04:07:31.316Z,65.86
2018-07-30T04:08:31.300Z,66.05
2018-07-30T04:09:31.290Z,65.66
2018-07-30T04:10:31.298Z,64.95
2018-07-30T04:11:31.270Z,65.25
2018-07-30T04:12:31.259Z,65.05
2018-07-30T04:13:31.246Z,64.65
2018-07-30T04:14:31.239Z,64.92
2018-07-30T04:15:31.227Z,65.16
2018-07-30T04:16:31.237Z,64.92
2018-07-30T04:17:31.200Z,64.86
2018-07-30T04:18:31.197Z,65.05
2018-07-30T04:19:31.270Z,65.05
2018-07-30T04:20:31.172Z,64.75
2018-07-30T04:21:31.162Z,64.52
2018-07-30T04:22:31.179Z,64.62
2018-07-30T04:23:31.135Z,64.52
2018-07-30T04:24:31.128Z,64.55
2018-07-30T04:25:31.117Z,64.42
2018-07-30T04:26:31.121Z,64.32
2018-07-30T04:27:31.168Z,64.52
2018-07-30T04:28:31.082Z,63.62
2018-07-30T04:29:31.065Z,63.85
2018-07-30T04:30:31.117Z,64.06
2018-07-30T04:31:31.045Z,64.06
2018-07-30T04:32:31.057Z,64.45
2018-07-30T04:33:31.026Z,63.85
2018-07-30T04:34:31.016Z,64.25
2018-07-30T04:35:31.004Z,63.95
2018-07-30T04:36:30.993Z,64.06
2018-07-30T04:37:31.009Z,63.75
2018-07-30T04:38:30.971Z,64.06
2018-07-30T04:39:30.956Z,63.06
2018-07-30T04:40:30.965Z,63.75
2018-07-30T04:41:30.937Z,63.53
2018-07-30T04:42:30.952Z,63.06
2018-07-30T04:43:30.944Z,62.55
2018-07-30T04:44:30.909Z,62.62
2018-07-30T04:45:30.892Z,62.72
2018-07-30T04:46:30.881Z,62.82
2018-07-30T04:47:30.907Z,63.22
2018-07-30T04:48:30.858Z,62.52
2018-07-30T04:49:30.847Z,62.72
2018-07-30T04:50:30.835Z,62.52
2018-07-30T04:51:30.822Z,61.82
2018-07-30T04:52:30.814Z,62.12
2018-07-30T04:53:30.840Z,62.12
2018-07-30T04:54:30.798Z,61.79
2018-07-30T04:55:30.796Z,61.92
2018-07-30T04:56:30.775Z,61.92
2018-07-30T04:57:30.763Z,61.72
2018-07-30T04:58:30.751Z,62.02
2018-07-30T04:59:30.855Z,61.82
2018-07-30T05:00:30.728Z,61.89
2018-07-30T05:01:30.719Z,61.22
2018-07-30T05:02:30.708Z,60.99
2018-07-30T05:03:30.725Z,60.79
2018-07-30T05:04:30.686Z,60.69
2018-07-30T05:05:30.676Z,60.19
2018-07-30T05:06:30.697Z,60.29
2018-07-30T05:07:30.650Z,60.69
2018-07-30T05:08:30.675Z,60.59
2018-07-30T05:09:30.639Z,62.09
2018-07-30T05:10:30.622Z,61.99
2018-07-30T05:11:30.606Z,61.99
2018-07-30T05:12:30.597Z,61.87
2018-07-30T05:13:30.590Z,61.29
2018-07-30T05:14:30.606Z,61.96
2018-07-30T05:15:30.564Z,60.96
2018-07-30T05:16:30.559Z,61.07
2018-07-30T05:17:30.544Z,60.96
2018-07-30T05:18:30.535Z,60.86
2018-07-30T05:19:30.569Z,60.77
2018-07-30T05:20:30.512Z,60.63
2018-07-30T05:21:30.502Z,60.27
2018-07-30T05:22:30.493Z,60.74
2018-07-30T05:23:30.491Z,60.83
2018-07-30T05:24:30.499Z,60.74
2018-07-30T05:25:30.489Z,59.64
2018-07-30T05:26:30.452Z,59.83
2018-07-30T05:27:30.436Z,59.83
2018-07-30T05:28:30.425Z,60.03
2018-07-30T05:29:30.414Z,59.23
2018-07-30T05:30:30.436Z,59.44
2018-07-30T05:31:30.446Z,59.44
2018-07-30T05:32:30.379Z,58.41
2018-07-30T05:33:30.373Z,58.64
2018-07-30T05:34:30.365Z,58.41
2018-07-30T05:35:30.348Z,58.44
2018-07-30T05:36:30.369Z,58.31
2018-07-30T05:37:30.328Z,56.91
2018-07-30T05:38:30.319Z,57.21
2018-07-30T05:39:30.398Z,57.81
2018-07-30T05:40:30.319Z,58.71
2018-07-30T05:41:30.284Z,57.74
2018-07-30T05:42:30.280Z,57.71
2018-07-30T05:43:30.264Z,57.71
2018-07-30T05:44:30.256Z,57.51
2018-07-30T05:45:30.275Z,58.11
2018-07-30T05:46:30.232Z,57.01
2018-07-30T05:47:30.223Z,57.81
2018-07-30T05:48:30.207Z,57.21
2018-07-30T05:49:30.196Z,57.44
2018-07-30T05:50:30.212Z,57.71
2018-07-30T05:51:30.203Z,58.01
2018-07-30T05:52:30.167Z,58.21
2018-07-30T05:53:30.158Z,58.61
2018-07-30T05:54:30.144Z,58.51
2018-07-30T05:55:30.186Z,57.81
2018-07-30T05:56:30.141Z,57.61
2018-07-30T05:57:30.108Z,57.81
2018-07-30T05:58:30.099Z,57.71
2018-07-30T05:59:30.151Z,57.11
2018-07-30T06:00:30.080Z,57.61
2018-07-30T06:01:30.094Z,57.39
2018-07-30T06:02:30.063Z,56.59
2018-07-30T06:03:30.073Z,56.79
2018-07-30T06:04:30.038Z,57.39
2018-07-30T06:05:30.037Z,56.38
2018-07-30T06:06:30.040Z,56.06
2018-07-30T06:07:30.001Z,55.88
2018-07-30T06:08:29.988Z,55.96
2018-07-30T06:09:30.033Z,55.76
2018-07-30T06:10:29.965Z,55.26
2018-07-30T06:11:29.986Z,55.06
2018-07-30T06:12:29.952Z,54.96
2018-07-30T06:13:29.933Z,55.06
2018-07-30T06:14:29.919Z,54.74
2018-07-30T06:15:29.914Z,54.34
2018-07-30T06:16:29.929Z,54.34
2018-07-30T06:17:29.888Z,54.04
2018-07-30T06:18:29.878Z,54.04
2018-07-30T06:19:29.910Z,54.34
2018-07-30T06:20:29.855Z,53.54
2018-07-30T06:21:29.846Z,53.22
2018-07-30T06:22:29.858Z,53.04
2018-07-30T06:23:29.826Z,53.34
2018-07-30T06:24:29.813Z,53.22
2018-07-30T06:25:29.804Z,52.72
2018-07-30T06:26:29.849Z,53.31
2018-07-30T06:27:29.870Z,52.42
2018-07-30T06:28:29.794Z,52.62
2018-07-30T06:29:29.764Z,52.32
2018-07-30T06:30:29.745Z,52.39
2018-07-30T06:31:29.731Z,52.12
2018-07-30T06:32:29.729Z,52.19
2018-07-30T06:33:29.745Z,52.49
2018-07-30T06:34:29.701Z,52.19
2018-07-30T06:35:29.762Z,52.09
2018-07-30T06:36:29.679Z,52.29
2018-07-30T06:37:29.678Z,52.19
2018-07-30T06:38:29.741Z,51.59
2018-07-30T06:39:29.652Z,52.49
2018-07-30T06:40:29.633Z,52.17
2018-07-30T06:41:29.626Z,52.29
2018-07-30T06:42:29.616Z,52.59
2018-07-30T06:43:29.625Z,51.87
2018-07-30T06:44:29.594Z,51.67
2018-07-30T06:45:29.591Z,52.37
2018-07-30T06:46:29.570Z,52.37
2018-07-30T06:47:29.564Z,51.97
2018-07-30T06:48:29.576Z,52.47
2018-07-30T06:49:29.541Z,52.37
2018-07-30T06:50:29.530Z,51.54
2018-07-30T06:51:29.527Z,52.34
2018-07-30T06:52:29.508Z,51.97
2018-07-30T06:53:29.499Z,51.75
2018-07-30T06:54:29.514Z,52.14
2018-07-30T06:55:29.482Z,52.14
2018-07-30T06:56:29.576Z,52.04
2018-07-30T06:57:29.458Z,52.54
2018-07-30T06:58:29.443Z,51.95
2018-07-30T06:59:29.437Z,51.65
2018-07-30T07:00:29.430Z,51.65
2018-07-30T07:01:29.446Z,51.65
2018-07-30T07:02:29.398Z,51.95
2018-07-30T07:03:29.389Z,51.84
2018-07-30T07:04:29.373Z,52.14
2018-07-30T07:05:29.376Z,51.84
2018-07-30T07:06:29.356Z,51.22
2018-07-30T07:07:29.375Z,52.12
2018-07-30T07:08:29.347Z,51.52
2018-07-30T07:09:29.319Z,52.62
2018-07-30T07:10:29.335Z,52.12
2018-07-30T07:11:29.312Z,52.02
2018-07-30T07:12:29.313Z,51.52
2018-07-30T07:13:29.280Z,52.12
2018-07-30T07:14:29.270Z,52.02
2018-07-30T07:15:29.273Z,51.50
2018-07-30T07:16:29.266Z,51.20
2018-07-30T07:17:29.254Z,51.40
2018-07-30T07:18:29.220Z,51.10
2018-07-30T07:19:29.241Z,51.40
2018-07-30T07:20:29.201Z,50.70
2018-07-30T07:21:29.201Z,51.00
2018-07-30T07:22:29.207Z,50.90
2018-07-30T07:23:29.171Z,51.30
2018-07-30T07:24:29.159Z,51.10
2018-07-30T07:25:29.148Z,51.10
2018-07-30T07:26:29.145Z,50.88
2018-07-30T07:27:29.167Z,50.98
2018-07-30T07:28:29.112Z,50.48
2018-07-30T07:29:29.103Z,50.58
2018-07-30T07:30:29.107Z,51.57
2018-07-30T07:31:29.089Z,51.17
2018-07-30T07:32:29.071Z,50.48
2018-07-30T07:33:29.084Z,50.78
2018-07-30T07:34:29.055Z,50.28
2018-07-30T07:35:29.045Z,49.86
2018-07-30T07:36:29.025Z,50.16
2018-07-30T07:37:29.018Z,50.05
2018-07-30T07:38:29.062Z,50.26
2018-07-30T07:39:28.999Z,50.75
2018-07-30T07:40:28.983Z,50.45
2018-07-30T07:41:28.987Z,51.15
2018-07-30T07:42:28.963Z,49.93
2018-07-30T07:43:28.951Z,49.44
2018-07-30T07:44:28.974Z,49.34
2018-07-30T07:45:28.943Z,49.74
2018-07-30T07:46:28.919Z,50.03
2018-07-30T07:47:28.915Z,50.73
2018-07-30T07:48:28.896Z,50.13
2018-07-30T07:49:28.885Z,49.84
2018-07-30T07:50:28.932Z,50.03
2018-07-30T07:51:28.863Z,48.14
2018-07-30T07:52:28.854Z,48.14
2018-07-30T07:53:28.854Z,48.35
2018-07-30T07:54:28.845Z,48.25
2018-07-30T07:55:28.928Z,49.44
2018-07-30T07:56:28.817Z,49.34
2018-07-30T07:57:28.803Z,49.93
2018-07-30T07:58:28.787Z,48.02
2018-07-30T07:59:28.778Z,48.72
2018-07-30T08:00:28.816Z,48.62
2018-07-30T08:01:28.758Z,48.32
2018-07-30T08:02:28.751Z,48.60
2018-07-30T08:03:28.738Z,48.40
2018-07-30T08:04:28.734Z,48.00
2018-07-30T08:05:28.716Z,48.60
2018-07-30T08:06:28.725Z,47.71
2018-07-30T08:07:28.698Z,47.71
2018-07-30T08:08:28.688Z,48.50
2018-07-30T08:09:28.666Z,48.50
2018-07-30T08:10:28.663Z,47.58
2018-07-30T08:11:28.757Z,47.78
2018-07-30T08:12:28.648Z,47.09
2018-07-30T08:13:28.626Z,47.56
2018-07-30T08:14:28.615Z,45.97
2018-07-30T08:15:28.602Z,47.16
2018-07-30T08:16:28.634Z,46.37
2018-07-30T08:17:28.582Z,47.06
2018-07-30T08:18:28.571Z,46.27
2018-07-30T08:19:28.563Z,46.67
2018-07-30T08:20:28.549Z,46.77
2018-07-30T08:21:28.537Z,46.86
2018-07-30T08:22:28.552Z,45.78
2018-07-30T08:23:28.524Z,45.97
2018-07-30T08:24:28.504Z,46.57
2018-07-30T08:25:28.498Z,47.36
2018-07-30T08:26:28.485Z,46.35
2018-07-30T08:27:28.563Z,45.75
2018-07-30T08:28:28.463Z,45.85
2018-07-30T08:29:28.449Z,45.26
2018-07-30T08:30:28.445Z,46.25
2018-07-30T08:31:28.444Z,45.26
2018-07-30T08:32:28.420Z,45.56
2018-07-30T08:33:28.474Z,45.23
2018-07-30T08:34:28.404Z,45.45
2018-07-30T08:35:28.396Z,45.63
2018-07-30T08:36:28.374Z,45.93
2018-07-30T08:37:28.363Z,46.12
2018-07-30T08:38:28.378Z,45.93
2018-07-30T08:39:28.369Z,45.04
2018-07-30T08:40:28.340Z,44.84
2018-07-30T08:41:28.327Z,44.84
2018-07-30T08:42:28.315Z,44.94
2018-07-30T08:43:28.302Z,44.35
2018-07-30T08:44:28.347Z,44.94
2018-07-30T08:45:28.282Z,44.54
2018-07-30T08:46:28.275Z,44.54
2018-07-30T08:47:28.263Z,44.54
2018-07-30T08:48:28.261Z,44.32
2018-07-30T08:49:28.236Z,44.42
2018-07-30T08:50:28.246Z,43.83
2018-07-30T08:51:28.222Z,44.42
2018-07-30T08:52:28.203Z,44.42
2018-07-30T08:53:28.203Z,43.53
2018-07-30T08:54:28.193Z,43.71
2018-07-30T08:55:28.205Z,44.20
2018-07-30T08:56:28.212Z,43.41
2018-07-30T08:57:28.152Z,43.41
2018-07-30T08:58:28.151Z,43.41
2018-07-30T08:59:28.137Z,43.98
2018-07-30T09:00:28.150Z,43.98
2018-07-30T09:01:28.108Z,43.49
2018-07-30T09:02:28.130Z,43.59
2018-07-30T09:03:28.086Z,43.59
2018-07-30T09:04:28.073Z,43.98
2018-07-30T09:05:28.067Z,42.99
2018-07-30T09:06:28.072Z,43.57
2018-07-30T09:07:28.068Z,42.60
2018-07-30T09:08:28.034Z,42.48
2018-07-30T09:09:28.026Z,42.68
2018-07-30T09:10:28.047Z,42.66
2018-07-30T09:11:28.003Z,42.68
2018-07-30T09:12:28.043Z,42.66
2018-07-30T09:13:28.006Z,42.26
2018-07-30T09:14:27.964Z,43.35
2018-07-30T09:15:27.961Z,42.58
2018-07-30T09:16:27.946Z,41.77
2018-07-30T09:17:27.932Z,42.66
2018-07-30T09:18:27.962Z,41.97
2018-07-30T09:19:27.919Z,41.67
2018-07-30T09:20:27.903Z,42.46
2018-07-30T09:21:27.893Z,41.97
2018-07-30T09:22:27.889Z,41.77
2018-07-30T09:23:27.916Z,40.09
2018-07-30T09:24:27.859Z,40.88
2018-07-30T09:25:27.850Z,40.29
2018-07-30T09:26:27.837Z,41.47
2018-07-30T09:27:27.829Z,40.96
2018-07-30T09:28:27.824Z,41.57
2018-07-30T09:29:27.836Z,41.65
2018-07-30T09:30:27.795Z,40.66
2018-07-30T09:31:27.787Z,40.76
2018-07-30T09:32:27.775Z,40.07
2018-07-30T09:33:27.766Z,41.16
2018-07-30T09:34:27.814Z,41.16
2018-07-30T09:35:27.739Z,40.76
2018-07-30T09:36:27.731Z,40.17
2018-07-30T09:37:27.720Z,40.66
2018-07-30T09:38:27.714Z,40.05
2018-07-30T09:39:27.732Z,40.45
2018-07-30T09:40:27.694Z,40.64
2018-07-30T09:41:27.689Z,39.65
2018-07-30T09:42:27.667Z,39.95
2018-07-30T09:43:27.660Z,40.05
2018-07-30T09:44:27.740Z,40.35
2018-07-30T09:45:27.637Z,40.25
2018-07-30T09:46:27.630Z,40.25
2018-07-30T09:47:27.616Z,39.56
2018-07-30T09:48:27.610Z,39.44
2018-07-30T09:49:27.596Z,38.45
2018-07-30T09:50:27.721Z,38.75
2018-07-30T09:51:27.573Z,39.36
2018-07-30T09:52:27.567Z,39.34
2018-07-30T09:53:27.551Z,39.15
2018-07-30T09:54:27.542Z,39.94
2018-07-30T09:55:27.555Z,39.54
2018-07-30T09:56:27.513Z,39.64
2018-07-30T09:57:27.513Z,39.94
2018-07-30T09:58:27.494Z,39.73
2018-07-30T09:59:27.485Z,40.13
2018-07-30T10:00:27.511Z,40.03
2018-07-30T10:01:27.461Z,39.54
2018-07-30T10:02:27.456Z,39.52
2018-07-30T10:03:27.445Z,39.32
2018-07-30T10:04:27.429Z,39.12
2018-07-30T10:05:27.456Z,38.93
2018-07-30T10:06:27.409Z,39.42
2018-07-30T10:07:27.420Z,39.92
2018-07-30T10:08:27.389Z,39.42
2018-07-30T10:09:27.379Z,39.42
2018-07-30T10:10:27.368Z,39.42
2018-07-30T10:11:27.454Z,39.23
2018-07-30T10:12:27.348Z,39.52
2018-07-30T10:13:27.337Z,38.83
2018-07-30T10:14:27.351Z,39.32
2018-07-30T10:15:27.322Z,39.42
2018-07-30T10:16:27.343Z,40.01
2018-07-30T10:17:27.304Z,39.92
2018-07-30T10:18:27.284Z,40.70
2018-07-30T10:19:27.277Z,39.52
2018-07-30T10:20:27.261Z,39.72
2018-07-30T10:21:27.248Z,39.01
2018-07-30T10:22:27.282Z,39.42
2018-07-30T10:23:27.232Z,39.32
2018-07-30T10:24:27.219Z,39.79
2018-07-30T10:25:27.209Z,39.01
2018-07-30T10:26:27.203Z,39.01
2018-07-30T10:27:27.190Z,38.32
2018-07-30T10:28:27.200Z,39.31
2018-07-30T10:29:27.171Z,39.11
2018-07-30T10:30:27.169Z,39.20
2018-07-30T10:31:27.151Z,38.42
2018-07-30T10:32:27.187Z,38.42
2018-07-30T10:33:27.137Z,39.40
2018-07-30T10:34:27.173Z,39.89
2018-07-30T10:35:27.102Z,39.79
2018-07-30T10:36:27.102Z,39.89
2018-07-30T10:37:27.089Z,39.39
2018-07-30T10:38:27.108Z,38.51
2018-07-30T10:39:27.075Z,38.30
2018-07-30T10:40:27.052Z,39.39
2018-07-30T10:41:27.048Z,38.60
2018-07-30T10:42:27.034Z,39.68
2018-07-30T10:43:27.723Z,39.48
2018-07-30T10:44:27.006Z,39.39
2018-07-30T10:45:27.001Z,39.39
2018-07-30T10:46:27.034Z,39.39
2018-07-30T10:47:26.981Z,38.68
2018-07-30T10:48:27.010Z,38.38
2018-07-30T10:49:26.963Z,38.58
2018-07-30T10:50:26.950Z,38.48
2018-07-30T10:51:26.942Z,38.58
2018-07-30T10:52:26.923Z,38.09
2018-07-30T10:53:26.917Z,38.38
2018-07-30T10:54:26.930Z,38.66
2018-07-30T10:55:26.894Z,38.07
2018-07-30T10:56:26.888Z,38.36
2018-07-30T10:57:26.873Z,38.07
2018-07-30T10:58:26.857Z,38.66
2018-07-30T10:59:26.870Z,37.77
2018-07-30T11:00:26.842Z,37.97
2018-07-30T11:01:26.826Z,37.97
2018-07-30T11:02:26.818Z,38.66
2018-07-30T11:03:26.806Z,36.99
2018-07-30T11:04:26.818Z,37.48
2018-07-30T11:05:26.783Z,37.77
2018-07-30T11:06:26.782Z,38.26
2018-07-30T11:07:26.762Z,38.05
2018-07-30T11:08:26.765Z,38.24
2018-07-30T11:09:26.873Z,37.26
2018-07-30T11:10:26.795Z,37.55
2018-07-30T11:11:26.720Z,36.87
2018-07-30T11:12:26.711Z,37.07
2018-07-30T11:13:26.699Z,37.55
2018-07-30T11:14:26.719Z,38.05
2018-07-30T11:15:26.678Z,37.36
2018-07-30T11:16:26.666Z,38.44
2018-07-30T11:17:26.654Z,38.24
2018-07-30T11:18:26.646Z,37.95
2018-07-30T11:19:26.681Z,36.97
2018-07-30T11:20:26.620Z,36.95
2018-07-30T11:21:26.616Z,36.75
2018-07-30T11:22:26.605Z,36.85
2018-07-30T11:23:26.590Z,37.34
2018-07-30T11:24:26.585Z,37.05
2018-07-30T11:25:26.625Z,36.46
2018-07-30T11:26:26.635Z,36.46
2018-07-30T11:27:26.548Z,36.26
2018-07-30T11:28:26.539Z,36.85
2018-07-30T11:29:26.553Z,36.16
2018-07-30T11:30:26.538Z,36.16
2018-07-30T11:31:26.508Z,36.85
2018-07-30T11:32:26.501Z,36.85
2018-07-30T11:33:26.488Z,35.87
2018-07-30T11:34:26.500Z,35.57
2018-07-30T11:35:26.466Z,36.85
2018-07-30T11:36:26.453Z,36.83
2018-07-30T11:37:26.439Z,35.85
2018-07-30T11:38:26.474Z,35.95
2018-07-30T11:39:26.476Z,36.15
2018-07-30T11:40:26.448Z,37.03
2018-07-30T11:41:26.401Z,36.05
2018-07-30T11:42:26.395Z,36.05
2018-07-30T11:43:26.383Z,35.95
2018-07-30T11:44:26.371Z,35.55
2018-07-30T11:45:26.385Z,35.95
2018-07-30T11:46:26.346Z,37.03
2018-07-30T11:47:26.337Z,36.93
2018-07-30T11:48:26.365Z,36.93
2018-07-30T11:49:26.319Z,36.82
2018-07-30T11:50:26.406Z,36.82
2018-07-30T11:51:26.297Z,35.74
2018-07-30T11:52:26.284Z,35.34
2018-07-30T11:53:26.271Z,35.64
2018-07-30T11:54:26.445Z,35.44
2018-07-30T11:55:26.255Z,36.82
2018-07-30T11:56:26.268Z,35.34
2018-07-30T11:57:26.235Z,36.62
2018-07-30T11:58:26.220Z,35.64
2018-07-30T11:59:26.218Z,35.44
2018-07-30T12:00:26.201Z,35.34
2018-07-30T12:01:26.314Z,35.14
2018-07-30T12:02:26.203Z,35.14
2018-07-30T12:03:26.170Z,35.54
2018-07-30T12:04:26.179Z,35.83
2018-07-30T12:05:26.156Z,36.82
2018-07-30T12:06:26.216Z,36.82
2018-07-30T12:07:26.156Z,36.21
2018-07-30T12:08:26.123Z,35.72
2018-07-30T12:09:26.109Z,36.11
2018-07-30T12:10:26.179Z,35.54
2018-07-30T12:11:26.090Z,35.33
2018-07-30T12:12:26.129Z,34.92
2018-07-30T12:13:26.094Z,35.70
2018-07-30T12:14:26.070Z,35.50
2018-07-30T12:15:26.046Z,35.11
2018-07-30T12:16:26.036Z,34.81
2018-07-30T12:17:26.022Z,35.31
2018-07-30T12:18:26.050Z,34.92
2018-07-30T12:19:26.001Z,35.50
2018-07-30T12:20:26.146Z,34.92
2018-07-30T12:21:25.982Z,35.41
2018-07-30T12:22:26.033Z,35.31
2018-07-30T12:23:25.984Z,35.50
2018-07-30T12:24:25.952Z,34.72
2018-07-30T12:25:25.952Z,35.41
2018-07-30T12:26:25.944Z,35.11
2018-07-30T12:27:25.913Z,34.83
2018-07-30T12:28:25.944Z,34.83
2018-07-30T12:29:25.895Z,35.23
2018-07-30T12:30:26.036Z,34.83
2018-07-30T12:31:25.873Z,35.82
2018-07-30T12:32:25.872Z,35.42
2018-07-30T12:33:25.881Z,35.33
2018-07-30T12:34:25.842Z,34.93
2018-07-30T12:35:25.833Z,35.42
2018-07-30T12:36:25.873Z,35.70
2018-07-30T12:37:25.812Z,34.52
2018-07-30T12:38:25.843Z,35.21
2018-07-30T12:39:25.790Z,33.82
2018-07-30T12:40:25.782Z,34.11
2018-07-30T12:41:25.769Z,34.31
2018-07-30T12:42:25.765Z,34.21
2018-07-30T12:43:25.755Z,34.41
2018-07-30T12:44:25.768Z,34.41
2018-07-30T12:45:25.729Z,34.01
2018-07-30T12:46:25.723Z,34.11
2018-07-30T12:47:25.706Z,34.11
2018-07-30T12:48:25.702Z,34.41
2018-07-30T12:49:25.736Z,32.74
2018-07-30T12:50:25.738Z,33.23
2018-07-30T12:51:25.671Z,33.51
2018-07-30T12:52:25.658Z,34.39